createdAt,value
2022-08-05T05:52:50.210Z,21.90
2022-08-05T05:55:20.442Z,21.88
2022-08-05T05:57:52.914Z,21.92
2022-08-05T06:00:31.309Z,21.96
2022-08-05T06:03:03.471Z,22.20
2022-08-05T06:05:54.118Z,22.37
2022-08-05T06:08:32.663Z,22.63
2022-08-05T06:11:04.039Z,22.86
2022-08-05T06:13:40.782Z,22.90
2022-08-05T06:16:29.971Z,22.96
2022-08-05T06:19:01.856Z,22.94
2022-08-05T06:21:37.367Z,22.78
2022-08-05T06:24:11.560Z,22.71
2022-08-05T06:26:51.213Z,22.51
2022-08-05T06:29:43.234Z,22.36
2022-08-05T06:32:26.329Z,22.43
2022-08-05T06:34:59.329Z,22.52
2022-08-05T06:37:55.547Z,22.52
2022-08-05T06:40:27.873Z,22.52
2022-08-05T06:43:02.121Z,22.62
2022-08-05T06:46:02.972Z,22.71
2022-08-05T06:48:53.113Z,22.91
2022-08-05T06:51:21.850Z,23.02
2022-08-05T06:53:56.347Z,23.00
2022-08-05T06:56:27.467Z,23.05
2022-08-05T06:58:57.248Z,23.11
2022-08-05T07:01:32.383Z,23.19
2022-08-05T07:04:03.386Z,23.18
2022-08-05T07:06:32.687Z,23.35
2022-08-05T07:09:03.871Z,23.44
2022-08-05T07:11:36.995Z,23.45
2022-08-05T07:14:29.631Z,23.39
2022-08-05T07:18:00.226Z,23.33
2022-08-05T07:22:44.228Z,23.46
2022-08-05T07:25:22.432Z,23.64
2022-08-05T07:28:11.498Z,23.87
2022-08-05T07:30:41.489Z,24.10
2022-08-05T07:33:16.216Z,24.08
2022-08-05T07:36:03.520Z,23.94
2022-08-05T07:38:43.561Z,23.83
2022-08-05T07:42:08.074Z,23.73
2022-08-05T07:44:14.282Z,23.77
2022-08-05T07:46:49.840Z,23.69
2022-08-05T07:49:20.866Z,23.67
2022-08-05T07:51:53.734Z,23.60
2022-08-05T07:54:30.884Z,23.55
2022-08-05T07:57:14.584Z,23.66
2022-08-05T07:59:54.503Z,23.74
2022-08-05T08:02:31.468Z,23.82
2022-08-05T08:05:18.693Z,23.86
2022-08-05T08:07:59.566Z,23.85
2022-08-05T08:10:33.924Z,23.87
2022-08-05T08:13:06.065Z,24.05
2022-08-05T08:16:33.421Z,24.30
2022-08-05T08:18:26.262Z,24.48
2022-08-05T08:21:02.295Z,24.57
2022-08-05T08:24:01.768Z,24.60
2022-08-05T08:26:26.691Z,24.70
2022-08-05T08:29:22.220Z,24.92
2022-08-05T08:31:51.202Z,25.11
2022-08-05T08:34:30.358Z,25.25
2022-08-05T08:37:04.929Z,25.28
2022-08-05T08:39:37.474Z,25.30
2022-08-05T08:42:22.479Z,25.33
2022-08-05T08:45:18.466Z,25.48
2022-08-05T08:48:07.157Z,25.76
2022-08-05T08:51:03.208Z,26.39
2022-08-05T08:53:45.011Z,26.84
2022-08-05T08:56:15.675Z,26.71
2022-08-05T08:58:47.513Z,26.63
2022-08-05T09:01:19.017Z,26.47
2022-08-05T09:03:55.549Z,27.31
2022-08-05T09:06:29.711Z,28.41
2022-08-05T09:09:01.532Z,30.40
2022-08-05T09:11:50.806Z,32.09
2022-08-05T09:14:57.860Z,33.85
2022-08-05T09:17:41.200Z,34.66
2022-08-05T09:20:12.786Z,35.65
2022-08-05T09:23:19.636Z,35.93
2022-08-05T09:26:02.659Z,36.32
2022-08-05T09:28:34.936Z,36.91
2022-08-05T09:32:08.522Z,37.46
2022-08-05T09:33:59.151Z,38.46
2022-08-05T09:36:55.107Z,39.06
2022-08-05T09:39:39.380Z,39.07
